createdAt,value
2022-08-22T00:02:20.746Z,5.55
2022-08-22T00:02:42.774Z,4.37
2022-08-22T00:02:46.132Z,5.60
2022-08-22T00:03:07.260Z,3.78
2022-08-22T00:05:05.898Z,5.65
2022-08-22T00:07:51.414Z,5.15
2022-08-22T00:10:25.877Z,4.90
2022-08-22T00:13:01.923Z,5.70
2022-08-22T00:15:42.896Z,6.85
2022-08-22T00:18:34.827Z,6.38
2022-08-22T00:21:14.865Z,7.00
2022-08-22T00:24:06.856Z,6.85
2022-08-22T00:26:48.976Z,5.65
2022-08-22T00:29:23.761Z,5.53
2022-08-22T00:32:10.593Z,7.03
2022-08-22T00:34:58.950Z,6.30
2022-08-22T00:37:34.858Z,4.57
2022-08-22T00:40:26.684Z,5.75
2022-08-22T00:43:14.392Z,6.88
2022-08-22T00:46:24.900Z,4.07
2022-08-22T00:49:18.837Z,5.32
2022-08-22T00:52:00.391Z,4.70
2022-08-22T00:54:51.405Z,6.55
2022-08-22T00:57:35.429Z,6.82
2022-08-22T01:00:13.644Z,5.35
2022-08-22T01:03:08.595Z,6.07
2022-08-22T01:05:41.873Z,6.90
2022-08-22T01:08:35.666Z,5.75
2022-08-22T01:11:44.832Z,5.63
2022-08-22T01:14:34.786Z,6.47
2022-08-22T01:17:18.957Z,6.75
2022-08-22T01:20:23.976Z,6.07
2022-08-22T01:23:32.249Z,5.35
2022-08-22T01:26:41.710Z,4.75
2022-08-22T01:29:39.882Z,5.15
2022-08-22T01:32:48.861Z,5.82
2022-08-22T01:35:50.509Z,5.05
2022-08-22T01:41:17.229Z,5.97
2022-08-22T01:44:11.791Z,6.75
2022-08-22T01:47:10.800Z,5.13
2022-08-22T01:49:46.615Z,3.78
2022-08-22T01:52:35.110Z,3.80
2022-08-22T01:55:24.105Z,4.18
2022-08-22T01:57:58.325Z,4.47
2022-08-22T02:00:35.291Z,4.55
2022-08-22T02:03:31.753Z,6.22
2022-08-22T02:06:14.353Z,5.97
2022-08-22T02:11:39.831Z,4.25
2022-08-22T02:14:14.794Z,3.17
2022-08-22T02:16:49.581Z,4.50
2022-08-22T02:19:16.692Z,4.30
2022-08-22T02:21:58.806Z,4.90
2022-08-22T02:24:47.751Z,8.00
2022-08-22T02:27:34.423Z,3.78
2022-08-22T02:30:21.748Z,3.80
2022-08-22T02:33:07.195Z,3.50
2022-08-22T02:35:41.872Z,4.97
2022-08-22T02:38:14.680Z,3.30
2022-08-22T02:43:24.047Z,4.00
2022-08-22T02:46:12.879Z,4.07
2022-08-22T02:48:55.541Z,3.90
2022-08-22T02:51:36.781Z,3.25
2022-08-22T02:54:09.067Z,5.72
2022-08-22T02:57:05.837Z,3.55
2022-08-22T03:00:31.172Z,3.17
2022-08-22T03:03:14.827Z,4.05
2022-08-22T03:05:44.570Z,3.80
2022-08-22T03:08:23.474Z,3.40
2022-08-22T03:11:24.421Z,3.95
2022-08-22T03:14:15.850Z,2.85
2022-08-22T03:17:01.101Z,3.40
2022-08-22T03:19:46.273Z,3.70
2022-08-22T03:22:31.259Z,2.30
2022-08-22T03:25:30.196Z,4.15
2022-08-22T03:28:10.072Z,4.60
2022-08-22T03:31:06.418Z,2.65
2022-08-22T03:33:33.312Z,2.60
2022-08-22T03:36:19.497Z,3.55
2022-08-22T03:39:07.294Z,2.25
2022-08-22T03:42:14.237Z,2.13
2022-08-22T03:44:59.671Z,2.40
2022-08-22T03:47:31.917Z,2.88
2022-08-22T03:50:36.127Z,5.67
2022-08-22T03:53:32.268Z,2.95
2022-08-22T03:56:38.270Z,3.38
2022-08-22T03:59:23.456Z,2.33
2022-08-22T04:02:24.751Z,3.03
2022-08-22T04:05:28.235Z,3.13
2022-08-22T04:08:25.577Z,3.03
2022-08-22T04:11:32.804Z,2.55
2022-08-22T04:14:32.428Z,2.47
2022-08-22T04:17:26.327Z,2.47
2022-08-22T04:20:05.256Z,3.25
2022-08-22T04:23:10.126Z,11.38
2022-08-22T04:25:38.888Z,2.72
2022-08-22T04:28:24.371Z,3.40
2022-08-22T04:31:09.392Z,2.92
2022-08-22T04:33:45.379Z,3.33
2022-08-22T04:36:26.478Z,3.78
2022-08-22T04:39:14.965Z,2.97
2022-08-22T04:42:10.930Z,2.65
2022-08-22T04:44:49.629Z,2.77
2022-08-22T04:47:31.630Z,2.70
2022-08-22T04:50:25.807Z,4.20
2022-08-22T04:53:17.611Z,3.17
2022-08-22T04:56:15.403Z,2.45
2022-08-22T04:58:47.981Z,2.92
2022-08-22T05:01:25.783Z,2.97
2022-08-22T05:04:05.939Z,2.83
2022-08-22T05:06:37.588Z,4.97
2022-08-22T05:09:12.916Z,3.83
2022-08-22T05:11:44.390Z,3.33
2022-08-22T05:14:28.039Z,4.32
2022-08-22T05:16:58.869Z,5.28
2022-08-22T05:19:34.733Z,6.10
2022-08-22T05:22:03.238Z,3.33
2022-08-22T05:24:42.415Z,3.88
2022-08-22T05:27:20.278Z,4.07
2022-08-22T05:29:49.829Z,4.88
2022-08-22T05:32:29.088Z,3.85
2022-08-22T05:35:02.112Z,3.92
2022-08-22T05:37:40.874Z,5.32
2022-08-22T05:40:11.263Z,4.25
2022-08-22T05:42:38.453Z,5.03
2022-08-22T05:45:11.579Z,5.03
2022-08-22T05:47:46.902Z,3.03
2022-08-22T05:50:27.707Z,4.97
2022-08-22T05:53:15.524Z,3.97
2022-08-22T05:55:48.677Z,7.35
2022-08-22T05:58:24.794Z,6.47
2022-08-22T06:01:03.381Z,4.55
2022-08-22T06:03:39.586Z,4.55
2022-08-22T06:06:18.184Z,5.13
2022-08-22T06:09:01.419Z,5.95
2022-08-22T06:14:33.948Z,4.43
2022-08-22T06:17:31.334Z,4.38
2022-08-22T06:20:00.205Z,4.63
2022-08-22T06:22:37.030Z,7.22
2022-08-22T06:25:22.032Z,7.20
2022-08-22T06:27:50.045Z,6.85
2022-08-22T06:30:18.998Z,3.33
2022-08-22T06:32:58.867Z,5.82
2022-08-22T06:35:53.026Z,5.88
2022-08-22T06:38:21.780Z,4.80
2022-08-22T06:40:54.351Z,5.57
2022-08-22T06:43:24.834Z,5.00
2022-08-22T06:45:53.304Z,5.18
2022-08-22T06:48:23.589Z,4.82
2022-08-22T06:50:56.267Z,3.95
2022-08-22T06:53:47.785Z,4.45
2022-08-22T06:56:25.472Z,5.30
2022-08-22T06:58:55.902Z,7.35
2022-08-22T07:01:28.492Z,6.13
2022-08-22T07:04:00.497Z,5.85
2022-08-22T07:06:35.147Z,4.95
2022-08-22T07:09:05.552Z,5.65
2022-08-22T07:11:56.238Z,5.35
2022-08-22T07:14:40.334Z,6.57
2022-08-22T07:17:09.537Z,9.45
2022-08-22T07:19:48.368Z,7.38
2022-08-22T07:22:31.282Z,7.80
2022-08-22T07:28:00.290Z,8.30
2022-08-22T07:30:49.966Z,9.95
2022-08-22T07:33:39.311Z,9.27
2022-08-22T07:36:34.263Z,7.88
2022-08-22T07:39:28.259Z,8.30
2022-08-22T07:42:07.071Z,7.47
2022-08-22T07:45:01.889Z,7.80
2022-08-22T07:47:52.661Z,7.78
2022-08-22T07:50:26.741Z,6.57
2022-08-22T07:53:00.593Z,5.53
2022-08-22T07:55:28.691Z,7.97
2022-08-22T07:58:03.962Z,7.40
2022-08-22T08:00:32.497Z,7.35
2022-08-22T08:03:05.768Z,7.28
2022-08-22T08:05:38.091Z,7.75
2022-08-22T08:08:16.217Z,8.45
2022-08-22T08:10:43.166Z,10.15
2022-08-22T08:13:20.089Z,8.20
2022-08-22T08:15:47.349Z,9.77
2022-08-22T08:18:21.851Z,8.63
2022-08-22T08:21:00.352Z,7.25
2022-08-22T08:23:31.453Z,7.80
2022-08-22T08:26:07.167Z,7.93
2022-08-22T08:28:44.519Z,8.20
2022-08-22T08:31:20.452Z,9.32
2022-08-22T08:33:50.410Z,8.00
2022-08-22T08:36:36.731Z,9.13
2022-08-22T08:39:16.945Z,9.38
2022-08-22T08:42:17.493Z,10.63
2022-08-22T08:45:18.197Z,9.82
2022-08-22T08:48:06.226Z,11.77
2022-08-22T08:51:04.718Z,10.60
2022-08-22T08:54:09.301Z,12.48
2022-08-22T08:57:05.703Z,7.78
2022-08-22T09:00:01.539Z,9.57
2022-08-22T09:02:47.095Z,11.25
2022-08-22T09:05:43.810Z,9.00
2022-08-22T09:08:42.875Z,8.57
2022-08-22T09:11:31.254Z,11.70
2022-08-22T09:14:26.676Z,7.22
2022-08-22T09:16:54.179Z,9.73
2022-08-22T09:19:33.334Z,10.15
2022-08-22T09:22:03.018Z,9.68
2022-08-22T09:25:08.106Z,10.13
2022-08-22T09:27:43.525Z,8.57
2022-08-22T09:30:28.512Z,8.63
2022-08-22T09:33:06.309Z,8.32
2022-08-22T09:36:05.117Z,8.73
2022-08-22T09:38:38.379Z,7.18
2022-08-22T09:41:06.170Z,8.30
2022-08-22T09:43:48.772Z,5.95
2022-08-22T09:46:21.837Z,7.95
2022-08-22T09:49:19.782Z,6.70
2022-08-22T09:51:53.110Z,7.70
2022-08-22T09:54:43.467Z,7.32
2022-08-22T09:57:34.883Z,6.40
2022-08-22T10:00:22.729Z,7.45
2022-08-22T10:03:22.369Z,8.85
2022-08-22T10:05:52.434Z,7.85
2022-08-22T10:08:57.996Z,8.63
2022-08-22T10:11:27.239Z,8.87
2022-08-22T10:14:10.447Z,5.57
2022-08-22T10:17:01.830Z,8.27
2022-08-22T10:19:35.686Z,7.13
2022-08-22T10:22:17.128Z,7.40
2022-08-22T10:25:02.559Z,9.23
2022-08-22T10:28:16.493Z,6.57
2022-08-22T10:30:58.420Z,6.95
2022-08-22T10:33:41.118Z,6.87
2022-08-22T10:36:23.697Z,6.93
2022-08-22T10:38:55.514Z,8.40
2022-08-22T10:41:46.443Z,7.50
2022-08-22T10:44:42.075Z,6.75
2022-08-22T10:49:54.521Z,7.70
2022-08-22T10:52:37.171Z,5.15
2022-08-22T10:55:12.585Z,6.88
2022-08-22T10:58:02.197Z,11.07
2022-08-22T11:00:33.950Z,6.57
2022-08-22T11:03:44.147Z,8.52
2022-08-22T11:06:38.154Z,6.55
2022-08-22T11:09:36.296Z,5.40
2022-08-22T11:12:13.014Z,8.40
2022-08-22T11:15:11.917Z,6.35
2022-08-22T11:18:34.408Z,5.38
2022-08-22T11:21:21.448Z,5.10
2022-08-22T11:24:01.101Z,6.05
2022-08-22T11:26:47.051Z,4.90
2022-08-22T11:29:42.539Z,6.75
2022-08-22T11:32:32.681Z,4.72
2022-08-22T11:35:08.904Z,7.05
2022-08-22T11:37:56.871Z,5.82
2022-08-22T11:40:41.097Z,11.00
2022-08-22T11:43:37.017Z,5.90
2022-08-22T11:46:25.550Z,5.97
2022-08-22T11:49:09.300Z,4.05
2022-08-22T11:51:57.972Z,4.97
2022-08-22T11:54:34.740Z,4.30
2022-08-22T11:57:28.370Z,5.80
2022-08-22T12:00:26.714Z,3.75
2022-08-22T12:03:05.860Z,3.92
2022-08-22T12:05:44.976Z,6.22
2022-08-22T12:08:35.366Z,7.13
2022-08-22T12:11:14.108Z,7.95
2022-08-22T12:14:03.910Z,5.25
2022-08-22T12:16:58.467Z,5.33
2022-08-22T12:22:12.845Z,7.03
2022-08-22T12:27:29.019Z,4.82
2022-08-22T12:30:04.494Z,6.07
2022-08-22T12:32:52.588Z,3.90
2022-08-22T12:35:42.074Z,7.93
2022-08-22T12:38:46.794Z,4.90
2022-08-22T12:41:28.146Z,5.32
2022-08-22T12:44:17.170Z,5.72
2022-08-22T12:47:14.735Z,5.78
2022-08-22T12:49:52.291Z,6.68
2022-08-22T12:52:46.408Z,6.07
2022-08-22T12:55:36.677Z,5.90
2022-08-22T12:58:23.295Z,5.40
2022-08-22T13:00:52.626Z,4.10
2022-08-22T13:03:32.582Z,6.53
2022-08-22T13:06:07.844Z,5.28
2022-08-22T13:08:45.668Z,5.38
2022-08-22T13:11:22.670Z,4.45
2022-08-22T13:13:57.356Z,5.63
2022-08-22T13:16:34.493Z,5.50
2022-08-22T13:19:13.492Z,4.22
2022-08-22T13:21:49.661Z,8.27
2022-08-22T13:24:38.583Z,5.13
2022-08-22T13:27:17.183Z,7.78
2022-08-22T13:29:58.741Z,4.97
2022-08-22T13:32:39.488Z,5.65
2022-08-22T13:35:32.569Z,4.68
2022-08-22T13:38:12.091Z,3.97
2022-08-22T13:40:44.219Z,7.20
2022-08-22T13:43:23.734Z,6.30
2022-08-22T13:45:55.517Z,4.45
2022-08-22T13:48:28.594Z,4.28
2022-08-22T13:53:56.183Z,5.20
2022-08-22T13:56:47.844Z,4.05
2022-08-22T13:59:49.440Z,4.30
2022-08-22T14:02:31.030Z,4.88
2022-08-22T14:05:08.406Z,4.70
2022-08-22T14:07:56.646Z,4.82
2022-08-22T14:10:35.124Z,4.90
2022-08-22T14:13:04.770Z,5.90
2022-08-22T14:15:44.893Z,6.35
2022-08-22T14:18:20.129Z,6.38
2022-08-22T14:21:17.282Z,5.53
2022-08-22T14:23:46.435Z,4.07
2022-08-22T14:26:32.836Z,5.13
2022-08-22T14:29:13.329Z,3.90
2022-08-22T14:32:03.704Z,3.58
2022-08-22T14:34:33.870Z,4.65
2022-08-22T14:37:14.645Z,3.80
2022-08-22T14:39:51.409Z,5.25
2022-08-22T14:42:27.161Z,5.40
2022-08-22T14:45:18.897Z,4.45
2022-08-22T14:48:30.676Z,4.53
2022-08-22T14:51:04.029Z,7.43
2022-08-22T14:53:34.583Z,4.85
2022-08-22T14:56:22.047Z,3.67
2022-08-22T14:58:56.462Z,3.83
2022-08-22T15:01:29.686Z,3.97
2022-08-22T15:04:09.811Z,4.90
2022-08-22T15:06:54.310Z,3.92
2022-08-22T15:09:46.176Z,3.35
2022-08-22T15:12:37.677Z,7.07
2022-08-22T15:15:15.143Z,4.88
2022-08-22T15:17:46.056Z,5.50
2022-08-22T15:20:38.244Z,6.15
2022-08-22T15:23:23.293Z,2.65
2022-08-22T15:26:01.730Z,3.30
2022-08-22T15:28:52.583Z,3.67
2022-08-22T15:31:21.632Z,6.53
2022-08-22T15:33:50.448Z,3.33
2022-08-22T15:36:20.295Z,4.97
2022-08-22T15:38:57.037Z,3.22
2022-08-22T15:41:36.170Z,6.95
2022-08-22T15:44:33.130Z,3.85
2022-08-22T15:47:28.500Z,4.47
2022-08-22T15:50:05.390Z,8.68
2022-08-22T15:52:59.699Z,6.80
2022-08-22T15:55:34.477Z,3.33
2022-08-22T15:58:13.190Z,6.65
2022-08-22T16:01:02.751Z,5.18
2022-08-22T16:03:32.883Z,4.30
2022-08-22T16:06:07.523Z,4.15
2022-08-22T16:08:51.231Z,3.55
2022-08-22T16:11:33.611Z,6.82
2022-08-22T16:14:24.139Z,4.55
2022-08-22T16:16:59.913Z,4.47
2022-08-22T16:19:29.787Z,6.22
2022-08-22T16:21:59.374Z,2.95
2022-08-22T16:24:26.312Z,3.28
2022-08-22T16:26:53.740Z,6.88
2022-08-22T16:29:37.670Z,4.18
2022-08-22T16:32:11.127Z,4.20
2022-08-22T16:34:45.717Z,4.15
2022-08-22T16:37:14.445Z,9.43
2022-08-22T16:39:44.516Z,3.03
2022-08-22T16:42:22.302Z,4.00
2022-08-22T16:45:05.156Z,5.70
2022-08-22T16:50:21.709Z,5.40
2022-08-22T16:53:08.571Z,4.97
2022-08-22T16:55:45.182Z,3.47
2022-08-22T16:58:56.883Z,3.30
2022-08-22T17:01:52.434Z,6.68
2022-08-22T17:07:10.466Z,9.35
2022-08-22T17:09:43.765Z,6.07
2022-08-22T17:12:19.844Z,6.28
2022-08-22T17:15:01.549Z,4.53
2022-08-22T17:18:11.904Z,5.43
2022-08-22T17:20:52.412Z,4.95
2022-08-22T17:23:34.816Z,3.03
2022-08-22T17:26:19.122Z,4.43
2022-08-22T17:29:01.760Z,5.28
2022-08-22T17:31:34.614Z,4.65
2022-08-22T17:34:19.948Z,5.03
2022-08-22T17:37:21.573Z,3.08
2022-08-22T17:40:18.950Z,7.38
2022-08-22T17:42:49.302Z,4.93
2022-08-22T17:45:28.187Z,4.32
2022-08-22T17:48:13.763Z,4.93
2022-08-22T17:50:52.545Z,3.67
2022-08-22T17:53:36.477Z,7.88
2022-08-22T17:59:05.084Z,6.90
2022-08-22T18:01:50.447Z,5.00
2022-08-22T18:04:22.350Z,5.63
2022-08-22T18:06:56.561Z,7.18
2022-08-22T18:09:39.901Z,5.68
2022-08-22T18:12:40.688Z,5.57
2022-08-22T18:15:40.980Z,4.32
2022-08-22T18:18:38.872Z,3.50
2022-08-22T18:21:26.925Z,6.63
2022-08-22T18:24:00.234Z,3.95
2022-08-22T18:29:11.020Z,5.80
2022-08-22T18:31:46.345Z,4.72
2022-08-22T18:34:27.959Z,4.65
2022-08-22T18:37:16.236Z,8.73
2022-08-22T18:39:58.844Z,3.95
2022-08-22T18:42:50.229Z,4.17
2022-08-22T18:45:43.874Z,4.88
2022-08-22T18:48:27.032Z,4.53
2022-08-22T18:51:25.127Z,5.03
2022-08-22T18:53:54.363Z,4.32
2022-08-22T18:56:50.339Z,6.32
2022-08-22T18:59:41.555Z,4.40
2022-08-22T19:02:17.882Z,7.55
2022-08-22T19:05:11.199Z,5.05
2022-08-22T19:07:51.148Z,4.50
2022-08-22T19:10:34.339Z,4.07
2022-08-22T19:13:22.958Z,3.33
2022-08-22T19:15:56.923Z,5.55
2022-08-22T19:18:34.481Z,5.18
2022-08-22T19:21:42.939Z,4.68
2022-08-22T19:24:35.571Z,4.93
2022-08-22T19:27:26.116Z,4.35
2022-08-22T19:30:04.977Z,6.47
2022-08-22T19:32:47.042Z,3.25
2022-08-22T19:35:23.467Z,4.10
2022-08-22T19:37:56.730Z,4.88
2022-08-22T19:40:46.141Z,3.70
2022-08-22T19:43:26.641Z,3.50
2022-08-22T19:45:56.372Z,3.35
2022-08-22T19:48:27.406Z,4.75
2022-08-22T19:51:28.343Z,4.53
2022-08-22T19:54:07.610Z,2.47
2022-08-22T19:56:43.531Z,2.97
2022-08-22T19:59:13.537Z,3.20
2022-08-22T20:01:43.267Z,4.93
2022-08-22T20:04:32.203Z,3.67
2022-08-22T20:07:14.414Z,4.53
2022-08-22T20:10:19.538Z,2.42
2022-08-22T20:12:59.718Z,3.95
2022-08-22T20:15:30.538Z,2.97
2022-08-22T20:18:47.375Z,3.45
2022-08-22T20:21:05.256Z,3.88
2022-08-22T20:23:32.807Z,4.43
2022-08-22T20:26:00.298Z,3.70
2022-08-22T20:28:47.538Z,2.88
2022-08-22T20:31:24.696Z,3.28
2022-08-22T20:34:11.547Z,4.20
2022-08-22T20:36:44.096Z,4.40
2022-08-22T20:39:18.430Z,3.03
2022-08-22T20:41:56.245Z,2.72
2022-08-22T20:44:30.737Z,2.42
2022-08-22T20:47:04.339Z,2.60
2022-08-22T20:49:42.162Z,4.97
2022-08-22T20:52:33.373Z,3.78
2022-08-22T20:55:11.501Z,2.05
2022-08-22T20:57:49.270Z,4.50
2022-08-22T21:00:24.338Z,2.67
2022-08-22T21:02:59.050Z,3.72
2022-08-22T21:05:43.685Z,2.88
2022-08-22T21:08:16.305Z,4.13
2022-08-22T21:11:18.531Z,4.20
2022-08-22T21:13:46.417Z,4.32
2022-08-22T21:16:31.215Z,2.85
2022-08-22T21:19:01.704Z,3.60
2022-08-22T21:21:31.458Z,4.30
2022-08-22T21:24:04.186Z,2.95
2022-08-22T21:26:39.156Z,3.25
2022-08-22T21:29:19.398Z,2.25
2022-08-22T21:32:04.851Z,1.65
2022-08-22T21:34:46.269Z,3.38
2022-08-22T21:37:17.219Z,2.38
2022-08-22T21:39:48.483Z,2.75
2022-08-22T21:42:29.182Z,2.65
2022-08-22T21:45:02.714Z,4.07
2022-08-22T21:47:32.533Z,2.92
2022-08-22T21:50:21.243Z,3.95
2022-08-22T21:53:00.326Z,2.58
2022-08-22T21:55:32.803Z,2.92
2022-08-22T21:58:03.989Z,2.38
2022-08-22T22:00:51.595Z,5.05
2022-08-22T22:03:23.551Z,3.95
2022-08-22T22:05:53.002Z,2.63
2022-08-22T22:08:20.559Z,3.45
2022-08-22T22:10:49.118Z,3.33
2022-08-22T22:13:19.047Z,3.13
2022-08-22T22:15:49.079Z,3.63
2022-08-22T22:18:19.185Z,2.88
2022-08-22T22:20:46.727Z,2.58
2022-08-22T22:23:14.069Z,4.78
2022-08-22T22:25:42.859Z,9.50
2022-08-22T22:28:17.064Z,2.83
2022-08-22T22:30:45.563Z,3.03
2022-08-22T22:33:12.522Z,2.55
2022-08-22T22:35:40.652Z,4.55
2022-08-22T22:38:08.602Z,3.25
2022-08-22T22:40:36.127Z,2.50
2022-08-22T22:43:03.493Z,3.50
2022-08-22T22:45:31.058Z,2.80
2022-08-22T22:47:58.337Z,3.88
2022-08-22T22:50:26.043Z,3.58
2022-08-22T22:52:53.176Z,2.03
2022-08-22T22:55:24.759Z,3.88
2022-08-22T22:57:58.887Z,3.30
2022-08-22T23:00:32.281Z,2.40
2022-08-22T23:03:01.195Z,3.95
2022-08-22T23:05:30.062Z,2.83
2022-08-22T23:07:58.101Z,2.65
2022-08-22T23:10:27.149Z,2.95
2022-08-22T23:12:54.519Z,2.40
2022-08-22T23:15:21.594Z,1.92
2022-08-22T23:17:48.864Z,3.25
2022-08-22T23:20:16.019Z,3.05
2022-08-22T23:22:45.157Z,3.55
2022-08-22T23:25:12.124Z,3.92
2022-08-22T23:27:39.821Z,2.88
2022-08-22T23:30:09.136Z,2.63
2022-08-22T23:32:36.993Z,3.83
2022-08-22T23:35:05.311Z,2.75
2022-08-22T23:37:32.234Z,2.60
2022-08-22T23:39:59.464Z,3.30
2022-08-22T23:42:26.897Z,2.50
2022-08-22T23:44:53.821Z,2.00
2022-08-22T23:47:20.756Z,3.45
2022-08-22T23:49:48.156Z,2.60
2022-08-22T23:52:15.111Z,3.45
2022-08-22T23:54:42.147Z,2.47
2022-08-22T23:57:12.045Z,4.95
2022-08-22T23:59:44.594Z,2.78
